Terminal Aerodrome Forecast
Issued by NWS Upton, NY

Home | Current Version | Previous Version | Text Only | Print | Product List | Glossary On
Versions: 1 2 3 4 5 6 7 8 9 10 11 12 13 14 15 16 17 18 19 20 21 22 23 24 25 26 27 28 29 30 31 32 33 34 35
353
FTUS41 KOKX 010539
TAFISP
TAF
KISP 010539Z 0106/0206 00000KT P6SM BKN250
     FM011100 03005KT P6SM FEW250
     FM011500 07008KT P6SM FEW250
     FM011800 12009KT P6SM FEW250
     FM012000 15009KT P6SM FEW250
     FM020000 08006KT P6SM FEW250=

USA.gov is the U.S. government's official web portal to all federal, state and local government web resources and services.